createdAt,value
2023-02-26T00:02:42.929Z,1.87
2023-02-26T00:05:45.756Z,1.73
2023-02-26T00:08:47.875Z,1.80
2023-02-26T00:11:50.384Z,1.50
2023-02-26T00:14:52.857Z,1.40
2023-02-26T00:18:07.658Z,1.43
2023-02-26T00:21:19.568Z,2.17
2023-02-26T00:24:21.998Z,1.30
2023-02-26T00:27:23.992Z,1.40
2023-02-26T00:30:26.689Z,2.03
2023-02-26T00:33:28.933Z,1.70
2023-02-26T00:36:50.649Z,1.57
2023-02-26T00:40:01.632Z,1.23
2023-02-26T00:43:08.271Z,1.30
2023-02-26T00:46:10.289Z,1.63
2023-02-26T00:49:44.567Z,1.40
2023-02-26T00:52:52.391Z,2.27
2023-02-26T00:55:54.673Z,1.23
2023-02-26T00:58:56.716Z,1.80
2023-02-26T01:01:59.030Z,1.77
2023-02-26T01:05:01.305Z,1.70
2023-02-26T01:08:12.683Z,1.70
2023-02-26T01:11:14.949Z,1.40
2023-02-26T01:14:18.160Z,1.80
2023-02-26T01:17:26.229Z,1.57
2023-02-26T01:20:35.666Z,1.43
2023-02-26T01:23:43.798Z,1.20
2023-02-26T01:26:47.693Z,1.40
2023-02-26T01:29:49.803Z,1.30
2023-02-26T01:33:00.617Z,1.20
2023-02-26T01:36:19.943Z,1.13
2023-02-26T01:39:31.047Z,1.60
2023-02-26T01:42:37.305Z,1.67
2023-02-26T01:46:00.883Z,1.57
2023-02-26T01:49:03.773Z,1.30
2023-02-26T01:52:27.181Z,1.57
2023-02-26T01:55:29.909Z,1.23
2023-02-26T01:58:35.658Z,1.10
2023-02-26T02:01:38.958Z,1.30
2023-02-26T02:04:42.781Z,1.40
2023-02-26T02:07:44.772Z,1.33
2023-02-26T02:10:49.725Z,1.30
2023-02-26T02:14:09.944Z,1.10
2023-02-26T02:17:12.142Z,1.10
2023-02-26T02:20:32.855Z,1.30
2023-02-26T02:23:47.711Z,1.10
2023-02-26T02:27:22.434Z,1.50
2023-02-26T02:31:02.359Z,1.10
2023-02-26T02:34:10.385Z,1.20
2023-02-26T02:37:32.596Z,0.93
2023-02-26T02:40:39.457Z,1.13
2023-02-26T02:43:43.642Z,1.30
2023-02-26T02:46:49.434Z,1.20
2023-02-26T02:50:03.240Z,1.00
2023-02-26T02:53:18.632Z,1.00
2023-02-26T02:56:27.784Z,1.30
2023-02-26T02:59:39.746Z,1.03
2023-02-26T03:03:05.697Z,1.00
2023-02-26T03:06:07.999Z,1.10
2023-02-26T03:09:10.838Z,1.03
2023-02-26T03:12:13.137Z,1.07
2023-02-26T03:15:18.711Z,1.20
2023-02-26T03:18:39.385Z,1.30
2023-02-26T03:21:50.645Z,1.50
2023-02-26T03:25:23.288Z,1.00
2023-02-26T03:28:31.907Z,1.13
2023-02-26T03:32:03.580Z,1.10
2023-02-26T03:35:17.062Z,1.10
2023-02-26T03:38:39.251Z,1.07
2023-02-26T03:42:00.569Z,1.20
2023-02-26T03:45:10.561Z,1.17
2023-02-26T03:48:21.500Z,1.10
2023-02-26T03:51:26.753Z,1.07
2023-02-26T03:54:41.692Z,1.20
2023-02-26T03:57:44.529Z,1.10
2023-02-26T04:00:50.723Z,1.10
2023-02-26T04:04:18.923Z,0.83
2023-02-26T04:07:22.544Z,1.00
2023-02-26T04:10:34.077Z,1.10
2023-02-26T04:13:36.354Z,1.03
2023-02-26T04:16:38.382Z,1.10
2023-02-26T04:19:40.653Z,1.10
2023-02-26T04:22:42.620Z,1.10
2023-02-26T04:25:45.256Z,1.20
2023-02-26T04:28:47.243Z,1.50
2023-02-26T04:31:49.681Z,1.30
2023-02-26T04:34:51.715Z,1.03
2023-02-26T04:37:54.023Z,0.90
2023-02-26T04:40:56.072Z,1.40
2023-02-26T04:43:58.396Z,0.87
2023-02-26T04:47:00.353Z,1.37
2023-02-26T04:50:02.780Z,0.90
2023-02-26T04:53:05.084Z,1.00
2023-02-26T04:56:07.883Z,0.80
2023-02-26T04:59:10.100Z,1.23
2023-02-26T05:02:12.316Z,0.90
2023-02-26T05:05:14.286Z,0.97
2023-02-26T05:08:16.687Z,0.90
2023-02-26T05:11:18.875Z,1.20
2023-02-26T05:14:21.162Z,1.40
2023-02-26T05:17:23.301Z,1.57
2023-02-26T05:20:26.590Z,1.20
2023-02-26T05:23:28.855Z,1.07
2023-02-26T05:26:31.476Z,1.10
2023-02-26T05:29:33.434Z,1.03
2023-02-26T05:32:35.937Z,1.23
2023-02-26T05:35:38.037Z,1.10
2023-02-26T05:38:40.305Z,1.50
2023-02-26T05:41:42.290Z,1.20
2023-02-26T05:44:44.566Z,1.00
2023-02-26T05:47:46.572Z,1.20
2023-02-26T05:50:50.527Z,1.50
2023-02-26T05:53:52.479Z,1.17
2023-02-26T05:56:55.777Z,1.20
2023-02-26T05:59:57.731Z,1.50
2023-02-26T06:03:00.025Z,1.30
2023-02-26T06:06:02.150Z,1.27
2023-02-26T06:09:04.573Z,1.20
2023-02-26T06:12:06.821Z,0.83
2023-02-26T06:15:10.098Z,0.90
2023-02-26T06:18:12.144Z,1.37
2023-02-26T06:21:16.849Z,1.00
2023-02-26T06:24:19.071Z,1.10
2023-02-26T06:27:22.370Z,1.30
2023-02-26T06:30:24.704Z,1.40
2023-02-26T06:33:27.712Z,2.57
2023-02-26T06:36:29.712Z,1.27
2023-02-26T06:39:32.621Z,1.43
2023-02-26T06:42:34.568Z,1.33
2023-02-26T06:45:36.887Z,1.50
2023-02-26T06:48:38.899Z,1.77
2023-02-26T06:51:41.487Z,1.33
2023-02-26T06:54:43.431Z,1.20
2023-02-26T06:57:45.703Z,1.70
2023-02-26T07:00:48.250Z,1.70
2023-02-26T07:03:50.954Z,1.87
2023-02-26T07:06:52.990Z,1.80
2023-02-26T07:09:55.476Z,1.40
2023-02-26T07:12:57.463Z,1.90
2023-02-26T07:15:59.776Z,1.60
2023-02-26T07:19:01.820Z,1.70
2023-02-26T07:22:04.077Z,1.30
2023-02-26T07:25:07.270Z,1.40
2023-02-26T07:28:09.540Z,1.70
2023-02-26T07:31:11.628Z,1.30
2023-02-26T07:34:14.006Z,8.53
2023-02-26T07:37:15.955Z,1.33
2023-02-26T07:40:18.904Z,1.50
2023-02-26T07:43:20.966Z,1.63
2023-02-26T07:46:23.381Z,1.47
2023-02-26T07:49:25.550Z,1.50
2023-02-26T07:52:28.727Z,2.60
2023-02-26T07:55:30.741Z,1.90
2023-02-26T07:58:33.135Z,1.30
2023-02-26T08:01:37.544Z,1.80
2023-02-26T08:04:40.557Z,1.67
2023-02-26T08:07:42.896Z,2.23
2023-02-26T08:10:45.107Z,1.77
2023-02-26T08:13:47.132Z,2.87
2023-02-26T08:16:49.488Z,3.03
2023-02-26T08:19:51.505Z,4.13
2023-02-26T08:22:53.752Z,1.90
2023-02-26T08:26:07.326Z,1.97
2023-02-26T08:29:09.610Z,2.10
2023-02-26T08:32:11.972Z,2.33
2023-02-26T08:35:14.248Z,2.30
2023-02-26T08:38:16.297Z,2.43
2023-02-26T08:41:18.678Z,1.60
2023-02-26T08:44:20.676Z,2.10
2023-02-26T08:47:28.693Z,5.30
2023-02-26T08:50:30.828Z,3.63
2023-02-26T08:53:33.072Z,4.00
2023-02-26T08:56:35.017Z,2.00
2023-02-26T08:59:37.275Z,4.10
2023-02-26T09:02:39.344Z,3.03
2023-02-26T09:05:41.834Z,1.80
2023-02-26T09:08:43.798Z,8.83
2023-02-26T09:11:46.245Z,6.37
2023-02-26T09:14:48.321Z,11.30
2023-02-26T09:17:51.680Z,7.00
2023-02-26T09:20:53.764Z,4.37
2023-02-26T09:23:55.992Z,2.80
2023-02-26T09:26:58.289Z,1.80
2023-02-26T09:30:00.596Z,2.63
2023-02-26T09:33:02.635Z,2.00
2023-02-26T09:36:05.136Z,2.03
2023-02-26T09:39:08.793Z,2.50
2023-02-26T09:42:31.975Z,1.87
2023-02-26T09:45:38.461Z,2.20
2023-02-26T09:48:42.369Z,6.33
2023-02-26T09:51:46.654Z,2.47
2023-02-26T09:55:15.602Z,2.57
2023-02-26T09:58:19.009Z,2.30
2023-02-26T10:01:54.628Z,2.00
2023-02-26T10:05:19.212Z,2.10
2023-02-26T10:08:26.622Z,1.50
2023-02-26T10:11:31.443Z,1.50
2023-02-26T10:14:55.038Z,1.80
2023-02-26T10:18:18.372Z,1.90
2023-02-26T10:21:45.636Z,3.80
2023-02-26T10:24:57.030Z,1.83
2023-02-26T10:28:01.710Z,1.83
2023-02-26T10:31:26.877Z,1.93
2023-02-26T10:34:51.617Z,1.70
2023-02-26T10:38:02.887Z,1.30
2023-02-26T10:41:11.605Z,3.17
2023-02-26T10:44:30.005Z,1.80
2023-02-26T10:47:48.543Z,2.30
2023-02-26T10:50:58.993Z,1.80
2023-02-26T10:54:24.777Z,1.67
2023-02-26T10:57:33.171Z,1.77
2023-02-26T11:00:35.752Z,1.20
2023-02-26T11:03:43.482Z,1.60
2023-02-26T11:06:51.513Z,2.10
2023-02-26T11:09:54.900Z,2.13
2023-02-26T11:12:58.701Z,1.40
2023-02-26T11:16:11.220Z,1.30
2023-02-26T11:19:15.633Z,2.63
2023-02-26T11:22:18.551Z,1.30
2023-02-26T11:25:25.400Z,1.50
2023-02-26T11:28:44.504Z,3.43
2023-02-26T11:31:55.512Z,2.40
2023-02-26T11:34:57.612Z,2.00
2023-02-26T11:38:02.508Z,1.77
2023-02-26T11:41:05.816Z,2.00
2023-02-26T11:44:13.712Z,6.13
2023-02-26T11:47:27.281Z,1.67
2023-02-26T11:50:30.525Z,1.10
2023-02-26T11:53:36.539Z,3.50
2023-02-26T11:56:44.370Z,2.37
2023-02-26T11:59:51.817Z,1.93
2023-02-26T12:03:04.918Z,2.40
2023-02-26T12:06:15.646Z,1.90
2023-02-26T12:09:18.989Z,6.07
2023-02-26T12:12:45.362Z,1.60
2023-02-26T12:16:17.622Z,2.20
2023-02-26T12:19:19.833Z,2.07
2023-02-26T12:22:34.129Z,3.10
2023-02-26T12:25:51.416Z,1.50
2023-02-26T12:29:34.668Z,2.87
2023-02-26T12:33:08.995Z,2.13
2023-02-26T12:36:21.822Z,2.60
2023-02-26T12:39:30.688Z,2.20
2023-02-26T12:42:55.388Z,1.60
2023-02-26T13:56:42.474Z,2.27
2023-02-26T13:59:44.653Z,2.67
2023-02-26T14:02:55.697Z,2.03
2023-02-26T14:06:25.837Z,3.00
2023-02-26T14:09:46.908Z,2.33
2023-02-26T14:13:08.330Z,2.17
2023-02-26T14:16:29.323Z,1.57
2023-02-26T14:19:53.521Z,1.97
2023-02-26T14:23:11.264Z,2.80
2023-02-26T14:26:18.610Z,1.13
2023-02-26T14:29:25.995Z,1.30
2023-02-26T14:32:34.432Z,1.23
2023-02-26T14:35:40.693Z,1.47
2023-02-26T14:38:45.381Z,1.33
2023-02-26T14:41:47.776Z,1.50
2023-02-26T14:44:58.021Z,1.20
2023-02-26T14:48:03.638Z,1.80
2023-02-26T14:51:17.965Z,1.10
2023-02-26T14:54:36.476Z,1.53
2023-02-26T14:57:53.996Z,1.80
2023-02-26T15:01:21.400Z,2.70
2023-02-26T15:04:54.333Z,2.60
2023-02-26T15:08:08.247Z,1.70
2023-02-26T15:11:24.751Z,1.60
2023-02-26T15:14:34.788Z,1.80
2023-02-26T15:17:39.888Z,1.40
2023-02-26T15:20:53.235Z,2.30
2023-02-26T15:23:58.400Z,3.37
2023-02-26T15:27:03.611Z,1.47
2023-02-26T15:30:06.573Z,1.70
2023-02-26T15:33:16.274Z,1.47
2023-02-26T15:36:22.064Z,1.97
2023-02-26T15:39:25.780Z,1.70
2023-02-26T15:42:33.711Z,1.60
2023-02-26T15:45:42.790Z,1.57
2023-02-26T15:48:45.326Z,2.20
2023-02-26T15:51:47.724Z,4.20
2023-02-26T15:54:53.321Z,3.80
2023-02-26T15:57:55.501Z,3.10
2023-02-26T16:01:01.752Z,2.97
2023-02-26T16:04:07.863Z,3.00
2023-02-26T16:07:12.064Z,2.93
2023-02-26T16:10:32.846Z,2.50
2023-02-26T16:13:39.839Z,6.67
2023-02-26T16:16:46.240Z,4.13
2023-02-26T16:19:50.762Z,9.47
2023-02-26T16:23:10.802Z,4.77
2023-02-26T16:26:25.600Z,2.67
2023-02-26T16:29:33.962Z,3.87
2023-02-26T16:32:36.585Z,3.50
2023-02-26T16:35:43.335Z,4.07
2023-02-26T16:38:57.927Z,2.93
2023-02-26T16:42:10.541Z,3.10
2023-02-26T16:45:18.832Z,3.50
2023-02-26T16:48:52.640Z,3.73
2023-02-26T16:51:56.736Z,3.03
2023-02-26T16:55:04.006Z,2.63
2023-02-26T16:58:13.949Z,3.67
2023-02-26T17:01:19.739Z,3.17
2023-02-26T17:04:35.177Z,4.70
2023-02-26T17:07:47.792Z,7.17
2023-02-26T17:11:02.860Z,3.83
2023-02-26T17:14:23.995Z,4.77
2023-02-26T17:17:26.715Z,3.07
2023-02-26T17:20:30.492Z,7.13
2023-02-26T17:23:37.056Z,7.80
2023-02-26T17:26:39.409Z,4.70
2023-02-26T17:29:44.244Z,22.43
2023-02-26T17:32:46.819Z,7.60
2023-02-26T17:35:50.062Z,10.87
2023-02-26T17:38:52.026Z,7.00
2023-02-26T17:41:54.905Z,5.93
2023-02-26T17:44:57.054Z,5.63
2023-02-26T17:47:59.425Z,8.50
2023-02-26T17:51:01.443Z,4.67
2023-02-26T17:54:03.897Z,31.50
2023-02-26T17:57:06.997Z,23.10
2023-02-26T18:00:17.909Z,35.10
2023-02-26T18:03:20.589Z,21.80
2023-02-26T18:06:24.542Z,8.43
2023-02-26T18:09:26.496Z,5.10
2023-02-26T18:12:28.875Z,16.70
2023-02-26T18:15:30.908Z,5.87
2023-02-26T18:18:33.581Z,5.67
2023-02-26T18:21:35.634Z,6.20
2023-02-26T18:24:38.380Z,6.93
2023-02-26T18:27:42.213Z,7.07
2023-02-26T18:30:48.840Z,7.50
2023-02-26T18:33:52.037Z,11.27
2023-02-26T18:36:56.099Z,7.63
2023-02-26T18:39:58.395Z,7.70
2023-02-26T18:43:18.959Z,4.77
2023-02-26T18:46:25.501Z,7.27
2023-02-26T18:49:28.046Z,7.70
2023-02-26T18:52:30.296Z,4.53
2023-02-26T18:55:42.309Z,4.37
2023-02-26T18:58:44.363Z,5.00
2023-02-26T19:05:29.504Z,4.73
2023-02-26T19:09:27.090Z,4.83
2023-02-26T19:13:11.613Z,5.40
2023-02-26T19:20:06.251Z,6.73
2023-02-26T19:23:24.595Z,13.90
2023-02-26T19:26:26.698Z,6.00
2023-02-26T19:29:32.144Z,5.83
2023-02-26T19:32:36.836Z,4.83
2023-02-26T19:35:39.796Z,4.50
2023-02-26T19:38:50.381Z,4.57
2023-02-26T19:41:53.815Z,6.40
2023-02-26T19:45:10.753Z,8.80
2023-02-26T19:48:23.366Z,15.47
2023-02-26T19:51:50.058Z,14.10
2023-02-26T19:54:54.565Z,7.23
2023-02-26T19:57:56.941Z,7.07
2023-02-26T20:01:01.620Z,6.03
2023-02-26T20:04:07.619Z,5.03
2023-02-26T20:07:13.820Z,4.13
2023-02-26T20:10:16.259Z,3.83
2023-02-26T20:13:25.678Z,3.43
2023-02-26T20:16:27.817Z,7.53
2023-02-26T20:19:30.502Z,3.77
2023-02-26T20:22:39.351Z,2.30
2023-02-26T20:25:51.009Z,3.07
2023-02-26T20:28:55.097Z,2.77
2023-02-26T20:32:00.584Z,2.63
2023-02-26T20:35:06.040Z,2.77
2023-02-26T20:38:11.737Z,2.00
2023-02-26T20:41:19.856Z,2.73
2023-02-26T20:44:38.594Z,3.03
2023-02-26T20:47:40.691Z,2.13
2023-02-26T20:51:16.443Z,1.97
2023-02-26T20:54:32.162Z,2.77
2023-02-26T20:57:45.690Z,2.33
2023-02-26T21:00:50.986Z,2.57
2023-02-26T21:03:54.155Z,2.43
2023-02-26T21:07:12.776Z,2.37
2023-02-26T21:10:17.029Z,6.67
2023-02-26T21:13:22.855Z,2.47
2023-02-26T21:16:25.563Z,2.97
2023-02-26T21:19:28.637Z,2.57
2023-02-26T21:22:32.466Z,2.87
2023-02-26T21:25:37.217Z,2.53
2023-02-26T21:28:49.697Z,2.20
2023-02-26T21:31:57.129Z,2.73
2023-02-26T21:34:59.270Z,34.40
2023-02-26T21:38:02.585Z,11.07
2023-02-26T21:41:05.348Z,2.43
2023-02-26T21:44:08.219Z,2.37
2023-02-26T21:47:11.128Z,2.80
2023-02-26T21:50:13.563Z,2.90
2023-02-26T21:53:15.756Z,2.40
2023-02-26T21:56:20.220Z,4.33
2023-02-26T21:59:23.361Z,2.73
2023-02-26T22:02:25.815Z,2.73
2023-02-26T22:05:27.837Z,2.70
2023-02-26T22:08:30.211Z,2.63
2023-02-26T22:11:32.266Z,2.50
2023-02-26T22:14:34.717Z,3.00
2023-02-26T22:17:37.390Z,3.10
2023-02-26T22:20:39.719Z,3.20
2023-02-26T22:23:41.687Z,3.17
2023-02-26T22:26:44.927Z,3.73
2023-02-26T22:29:47.266Z,3.90
2023-02-26T22:32:49.755Z,4.20
2023-02-26T22:35:59.937Z,3.27
2023-02-26T22:39:04.083Z,3.73
2023-02-26T22:42:06.158Z,3.80
2023-02-26T22:45:09.985Z,4.80
2023-02-26T22:48:12.204Z,4.37
2023-02-26T22:51:14.432Z,4.43
2023-02-26T22:54:16.437Z,4.80
2023-02-26T22:57:18.688Z,4.27
2023-02-26T23:00:21.348Z,4.47
2023-02-26T23:03:23.710Z,4.23
2023-02-26T23:06:26.098Z,3.70
2023-02-26T23:09:28.377Z,4.20
2023-02-26T23:12:30.466Z,3.70
2023-02-26T23:15:32.860Z,3.40
2023-02-26T23:18:36.479Z,3.23
2023-02-26T23:21:38.909Z,3.43
2023-02-26T23:24:41.580Z,2.90
2023-02-26T23:27:44.011Z,3.30
2023-02-26T23:30:46.359Z,3.40
2023-02-26T23:33:48.714Z,3.03
2023-02-26T23:36:50.829Z,3.20
2023-02-26T23:39:53.130Z,3.60
2023-02-26T23:42:56.169Z,2.97
2023-02-26T23:45:58.482Z,3.10
2023-02-26T23:49:00.601Z,3.33
2023-02-26T23:52:03.892Z,3.27
2023-02-26T23:55:06.649Z,3.17
2023-02-26T23:58:08.885Z,3.23
